sensor_id;sensor_type;location;lat;lon;timestamp;P1;durP1;ratioP1;P2;durP2;ratioP2
32864;SDS011;19219;44.500;11.188;2023-02-15T00:01:10;106.88;;;36.80;;
32864;SDS011;19219;44.500;11.188;2023-02-15T00:03:36;116.25;;;39.17;;
32864;SDS011;19219;44.500;11.188;2023-02-15T00:06:02;99.18;;;39.40;;
32864;SDS011;19219;44.500;11.188;2023-02-15T00:08:28;104.28;;;40.33;;
32864;SDS011;19219;44.500;11.188;2023-02-15T00:11:10;102.03;;;39.30;;
32864;SDS011;19219;44.500;11.188;2023-02-15T00:13:38;106.95;;;38.45;;
32864;SDS011;19219;44.500;11.188;2023-02-15T00:16:07;103.25;;;39.17;;
32864;SDS011;19219;44.500;11.188;2023-02-15T00:18:38;95.25;;;37.25;;
32864;SDS011;19219;44.500;11.188;2023-02-15T00:21:05;120.90;;;37.58;;
32864;SDS011;19219;44.500;11.188;2023-02-15T00:23:32;111.85;;;40.72;;
32864;SDS011;19219;44.500;11.188;2023-02-15T00:28:30;108.30;;;37.80;;
32864;SDS011;19219;44.500;11.188;2023-02-15T00:31:02;97.68;;;36.42;;
32864;SDS011;19219;44.500;11.188;2023-02-15T00:33:37;108.47;;;39.35;;
32864;SDS011;19219;44.500;11.188;2023-02-15T00:36:04;114.28;;;36.97;;
32864;SDS011;19219;44.500;11.188;2023-02-15T00:38:32;100.07;;;38.00;;
32864;SDS011;19219;44.500;11.188;2023-02-15T00:40:59;97.60;;;37.17;;
32864;SDS011;19219;44.500;11.188;2023-02-15T00:43:27;108.07;;;38.35;;
32864;SDS011;19219;44.500;11.188;2023-02-15T00:45:53;100.65;;;37.88;;
32864;SDS011;19219;44.500;11.188;2023-02-15T00:48:20;106.30;;;38.47;;
32864;SDS011;19219;44.500;11.188;2023-02-15T00:50:50;116.25;;;39.88;;
32864;SDS011;19219;44.500;11.188;2023-02-15T00:53:17;125.85;;;39.60;;
32864;SDS011;19219;44.500;11.188;2023-02-15T00:55:43;120.90;;;44.88;;
32864;SDS011;19219;44.500;11.188;2023-02-15T00:58:09;112.85;;;40.15;;
32864;SDS011;19219;44.500;11.188;2023-02-15T01:00:36;111.43;;;40.30;;
32864;SDS011;19219;44.500;11.188;2023-02-15T01:03:02;116.20;;;39.55;;
32864;SDS011;19219;44.500;11.188;2023-02-15T01:05:28;104.50;;;38.55;;
32864;SDS011;19219;44.500;11.188;2023-02-15T01:07:54;103.80;;;39.75;;
32864;SDS011;19219;44.500;11.188;2023-02-15T01:10:21;88.40;;;36.58;;
32864;SDS011;19219;44.500;11.188;2023-02-15T01:12:47;97.55;;;34.70;;
32864;SDS011;19219;44.500;11.188;2023-02-15T01:15:13;103.97;;;38.95;;
32864;SDS011;19219;44.500;11.188;2023-02-15T01:17:38;118.60;;;40.40;;
32864;SDS011;19219;44.500;11.188;2023-02-15T01:20:05;118.40;;;44.20;;
32864;SDS011;19219;44.500;11.188;2023-02-15T01:22:31;109.28;;;41.35;;
32864;SDS011;19219;44.500;11.188;2023-02-15T01:24:57;111.20;;;39.80;;
32864;SDS011;19219;44.500;11.188;2023-02-15T01:27:22;120.47;;;39.55;;
32864;SDS011;19219;44.500;11.188;2023-02-15T01:29:48;133.82;;;48.10;;
32864;SDS011;19219;44.500;11.188;2023-02-15T01:32:14;118.45;;;42.35;;
32864;SDS011;19219;44.500;11.188;2023-02-15T01:34:39;110.38;;;39.15;;
32864;SDS011;19219;44.500;11.188;2023-02-15T01:37:05;111.93;;;40.47;;
32864;SDS011;19219;44.500;11.188;2023-02-15T01:39:31;122.18;;;43.13;;
32864;SDS011;19219;44.500;11.188;2023-02-15T01:41:56;115.22;;;42.85;;
32864;SDS011;19219;44.500;11.188;2023-02-15T01:47:07;110.88;;;43.08;;
32864;SDS011;19219;44.500;11.188;2023-02-15T01:49:36;144.32;;;52.38;;
32864;SDS011;19219;44.500;11.188;2023-02-15T01:52:06;113.40;;;40.17;;
32864;SDS011;19219;44.500;11.188;2023-02-15T01:54:33;112.38;;;39.97;;
32864;SDS011;19219;44.500;11.188;2023-02-15T01:57:05;102.45;;;39.42;;
32864;SDS011;19219;44.500;11.188;2023-02-15T01:59:36;110.93;;;40.45;;
32864;SDS011;19219;44.500;11.188;2023-02-15T02:02:04;109.75;;;38.92;;
32864;SDS011;19219;44.500;11.188;2023-02-15T02:04:41;109.68;;;38.40;;
32864;SDS011;19219;44.500;11.188;2023-02-15T02:07:13;100.43;;;39.95;;
32864;SDS011;19219;44.500;11.188;2023-02-15T02:09:41;100.97;;;36.50;;
32864;SDS011;19219;44.500;11.188;2023-02-15T02:12:07;106.35;;;39.33;;
32864;SDS011;19219;44.500;11.188;2023-02-15T02:14:33;104.70;;;36.88;;
32864;SDS011;19219;44.500;11.188;2023-02-15T02:17:08;92.28;;;36.10;;
32864;SDS011;19219;44.500;11.188;2023-02-15T02:19:46;107.35;;;37.83;;
32864;SDS011;19219;44.500;11.188;2023-02-15T02:31:21;107.65;;;37.72;;
32864;SDS011;19219;44.500;11.188;2023-02-15T02:38:57;105.57;;;38.88;;
32864;SDS011;19219;44.500;11.188;2023-02-15T02:44:17;118.70;;;39.22;;
32864;SDS011;19219;44.500;11.188;2023-02-15T02:46:55;109.07;;;40.05;;
32864;SDS011;19219;44.500;11.188;2023-02-15T02:49:36;117.88;;;41.17;;
32864;SDS011;19219;44.500;11.188;2023-02-15T02:52:05;99.55;;;39.95;;
32864;SDS011;19219;44.500;11.188;2023-02-15T02:54:50;118.78;;;39.05;;
32864;SDS011;19219;44.500;11.188;2023-02-15T02:57:17;103.45;;;38.40;;
32864;SDS011;19219;44.500;11.188;2023-02-15T02:59:44;104.32;;;40.47;;
32864;SDS011;19219;44.500;11.188;2023-02-15T03:02:16;96.85;;;37.78;;
32864;SDS011;19219;44.500;11.188;2023-02-15T03:04:47;103.13;;;35.20;;
32864;SDS011;19219;44.500;11.188;2023-02-15T03:07:23;92.53;;;36.45;;
32864;SDS011;19219;44.500;11.188;2023-02-15T03:12:22;83.05;;;31.15;;
32864;SDS011;19219;44.500;11.188;2023-02-15T03:15:01;90.82;;;34.38;;
32864;SDS011;19219;44.500;11.188;2023-02-15T03:17:32;82.97;;;35.15;;
32864;SDS011;19219;44.500;11.188;2023-02-15T03:20:05;81.45;;;31.42;;
32864;SDS011;19219;44.500;11.188;2023-02-15T03:22:37;89.38;;;35.05;;
32864;SDS011;19219;44.500;11.188;2023-02-15T03:25:15;90.38;;;34.03;;
32864;SDS011;19219;44.500;11.188;2023-02-15T03:27:49;95.40;;;32.72;;
32864;SDS011;19219;44.500;11.188;2023-02-15T03:30:20;69.47;;;29.00;;
32864;SDS011;19219;44.500;11.188;2023-02-15T03:32:47;94.25;;;35.67;;
32864;SDS011;19219;44.500;11.188;2023-02-15T03:35:14;106.85;;;42.45;;
32864;SDS011;19219;44.500;11.188;2023-02-15T03:37:41;80.38;;;31.75;;
32864;SDS011;19219;44.500;11.188;2023-02-15T03:40:26;84.38;;;30.80;;
32864;SDS011;19219;44.500;11.188;2023-02-15T03:46:23;77.13;;;28.48;;
32864;SDS011;19219;44.500;11.188;2023-02-15T03:49:00;69.20;;;24.88;;
32864;SDS011;19219;44.500;11.188;2023-02-15T03:51:31;71.90;;;26.20;;
32864;SDS011;19219;44.500;11.188;2023-02-15T03:54:05;69.63;;;26.85;;
32864;SDS011;19219;44.500;11.188;2023-02-15T03:56:38;58.55;;;25.00;;
32864;SDS011;19219;44.500;11.188;2023-02-15T03:59:05;64.65;;;24.15;;
32864;SDS011;19219;44.500;11.188;2023-02-15T04:01:59;65.60;;;22.58;;
32864;SDS011;19219;44.500;11.188;2023-02-15T04:04:39;69.63;;;25.00;;
32864;SDS011;19219;44.500;11.188;2023-02-15T04:07:08;69.30;;;24.13;;
32864;SDS011;19219;44.500;11.188;2023-02-15T04:09:34;68.13;;;24.27;;
32864;SDS011;19219;44.500;11.188;2023-02-15T04:12:19;65.38;;;24.73;;
32864;SDS011;19219;44.500;11.188;2023-02-15T04:14:45;58.90;;;25.25;;
32864;SDS011;19219;44.500;11.188;2023-02-15T04:17:29;58.42;;;22.10;;
32864;SDS011;19219;44.500;11.188;2023-02-15T04:19:55;59.97;;;24.52;;
32864;SDS011;19219;44.500;11.188;2023-02-15T04:22:39;70.32;;;24.73;;
32864;SDS011;19219;44.500;11.188;2023-02-15T04:25:23;55.83;;;24.45;;
32864;SDS011;19219;44.500;11.188;2023-02-15T04:27:51;61.83;;;23.25;;
32864;SDS011;19219;44.500;11.188;2023-02-15T04:30:18;72.25;;;25.13;;
32864;SDS011;19219;44.500;11.188;2023-02-15T04:32:46;67.78;;;24.02;;
32864;SDS011;19219;44.500;11.188;2023-02-15T04:35:12;67.07;;;25.20;;
32864;SDS011;19219;44.500;11.188;2023-02-15T04:37:38;56.13;;;23.85;;
32864;SDS011;19219;44.500;11.188;2023-02-15T04:40:04;63.72;;;23.92;;
32864;SDS011;19219;44.500;11.188;2023-02-15T04:42:31;61.63;;;23.50;;
32864;SDS011;19219;44.500;11.188;2023-02-15T04:44:57;61.15;;;24.58;;
32864;SDS011;19219;44.500;11.188;2023-02-15T04:47:23;64.43;;;24.92;;
32864;SDS011;19219;44.500;11.188;2023-02-15T04:49:49;62.40;;;24.77;;
32864;SDS011;19219;44.500;11.188;2023-02-15T04:52:14;70.35;;;25.88;;
32864;SDS011;19219;44.500;11.188;2023-02-15T04:54:42;73.72;;;26.95;;
32864;SDS011;19219;44.500;11.188;2023-02-15T04:57:07;71.75;;;26.75;;
32864;SDS011;19219;44.500;11.188;2023-02-15T04:59:33;69.05;;;26.85;;
32864;SDS011;19219;44.500;11.188;2023-02-15T05:01:59;62.35;;;24.13;;
32864;SDS011;19219;44.500;11.188;2023-02-15T05:04:24;71.32;;;27.15;;
32864;SDS011;19219;44.500;11.188;2023-02-15T05:06:50;82.75;;;29.08;;
32864;SDS011;19219;44.500;11.188;2023-02-15T05:09:16;63.95;;;28.13;;
32864;SDS011;19219;44.500;11.188;2023-02-15T05:11:42;67.25;;;26.00;;
32864;SDS011;19219;44.500;11.188;2023-02-15T05:14:07;71.80;;;27.13;;
32864;SDS011;19219;44.500;11.188;2023-02-15T05:16:34;68.65;;;27.33;;
32864;SDS011;19219;44.500;11.188;2023-02-15T05:18:59;73.15;;;28.65;;
32864;SDS011;19219;44.500;11.188;2023-02-15T05:21:25;73.43;;;25.38;;
32864;SDS011;19219;44.500;11.188;2023-02-15T05:23:51;74.20;;;26.02;;
32864;SDS011;19219;44.500;11.188;2023-02-15T05:26:20;79.38;;;28.33;;
32864;SDS011;19219;44.500;11.188;2023-02-15T05:29:06;86.30;;;29.88;;
32864;SDS011;19219;44.500;11.188;2023-02-15T05:31:33;68.07;;;25.30;;
32864;SDS011;19219;44.500;11.188;2023-02-15T05:33:59;65.82;;;26.15;;
32864;SDS011;19219;44.500;11.188;2023-02-15T05:36:25;77.00;;;28.80;;
32864;SDS011;19219;44.500;11.188;2023-02-15T05:38:51;77.57;;;31.10;;
32864;SDS011;19219;44.500;11.188;2023-02-15T05:41:17;73.40;;;26.73;;
32864;SDS011;19219;44.500;11.188;2023-02-15T05:43:43;69.88;;;26.98;;
32864;SDS011;19219;44.500;11.188;2023-02-15T05:46:09;104.57;;;40.85;;
32864;SDS011;19219;44.500;11.188;2023-02-15T05:48:35;98.53;;;42.53;;
32864;SDS011;19219;44.500;11.188;2023-02-15T05:51:08;74.82;;;30.02;;
32864;SDS011;19219;44.500;11.188;2023-02-15T05:53:38;72.13;;;26.85;;
32864;SDS011;19219;44.500;11.188;2023-02-15T05:56:04;82.03;;;29.23;;
32864;SDS011;19219;44.500;11.188;2023-02-15T05:58:32;115.35;;;48.38;;
32864;SDS011;19219;44.500;11.188;2023-02-15T06:01:13;88.18;;;32.63;;
32864;SDS011;19219;44.500;11.188;2023-02-15T06:03:40;69.55;;;26.35;;
32864;SDS011;19219;44.500;11.188;2023-02-15T06:06:06;81.47;;;30.23;;
32864;SDS011;19219;44.500;11.188;2023-02-15T06:08:33;101.75;;;38.17;;
32864;SDS011;19219;44.500;11.188;2023-02-15T06:10:59;71.53;;;27.73;;
32864;SDS011;19219;44.500;11.188;2023-02-15T06:13:25;76.15;;;26.25;;
32864;SDS011;19219;44.500;11.188;2023-02-15T06:15:51;72.85;;;27.52;;
32864;SDS011;19219;44.500;11.188;2023-02-15T06:18:17;76.72;;;27.00;;
32864;SDS011;19219;44.500;11.188;2023-02-15T06:20:45;70.15;;;28.38;;
32864;SDS011;19219;44.500;11.188;2023-02-15T06:23:11;73.85;;;27.42;;
32864;SDS011;19219;44.500;11.188;2023-02-15T06:25:37;70.47;;;27.00;;
32864;SDS011;19219;44.500;11.188;2023-02-15T06:28:03;76.05;;;28.48;;
32864;SDS011;19219;44.500;11.188;2023-02-15T06:30:29;74.30;;;28.15;;
32864;SDS011;19219;44.500;11.188;2023-02-15T06:32:54;77.78;;;29.60;;
32864;SDS011;19219;44.500;11.188;2023-02-15T06:35:20;83.28;;;28.42;;
32864;SDS011;19219;44.500;11.188;2023-02-15T06:37:46;83.30;;;27.17;;
32864;SDS011;19219;44.500;11.188;2023-02-15T06:40:12;79.45;;;28.52;;
32864;SDS011;19219;44.500;11.188;2023-02-15T06:42:38;74.03;;;29.48;;
32864;SDS011;19219;44.500;11.188;2023-02-15T06:45:04;70.43;;;28.10;;
32864;SDS011;19219;44.500;11.188;2023-02-15T06:47:30;78.85;;;27.65;;
32864;SDS011;19219;44.500;11.188;2023-02-15T06:49:55;68.82;;;29.55;;
32864;SDS011;19219;44.500;11.188;2023-02-15T06:52:22;77.10;;;26.75;;
32864;SDS011;19219;44.500;11.188;2023-02-15T06:54:48;75.20;;;27.05;;
32864;SDS011;19219;44.500;11.188;2023-02-15T06:57:14;78.97;;;26.92;;
32864;SDS011;19219;44.500;11.188;2023-02-15T06:59:40;77.88;;;30.00;;
32864;SDS011;19219;44.500;11.188;2023-02-15T07:02:05;79.93;;;29.77;;
32864;SDS011;19219;44.500;11.188;2023-02-15T07:04:31;74.68;;;27.35;;
32864;SDS011;19219;44.500;11.188;2023-02-15T07:06:57;83.65;;;31.67;;
32864;SDS011;19219;44.500;11.188;2023-02-15T07:09:22;72.70;;;28.38;;
32864;SDS011;19219;44.500;11.188;2023-02-15T07:11:48;79.10;;;29.95;;
32864;SDS011;19219;44.500;11.188;2023-02-15T07:14:32;68.65;;;28.17;;
32864;SDS011;19219;44.500;11.188;2023-02-15T07:16:58;74.30;;;29.25;;
32864;SDS011;19219;44.500;11.188;2023-02-15T07:19:24;73.80;;;27.95;;
32864;SDS011;19219;44.500;11.188;2023-02-15T07:21:49;79.47;;;29.20;;
32864;SDS011;19219;44.500;11.188;2023-02-15T07:24:16;79.38;;;28.63;;
32864;SDS011;19219;44.500;11.188;2023-02-15T07:26:42;75.38;;;27.58;;
32864;SDS011;19219;44.500;11.188;2023-02-15T07:29:07;66.15;;;28.02;;
32864;SDS011;19219;44.500;11.188;2023-02-15T07:31:33;148.85;;;67.65;;
32864;SDS011;19219;44.500;11.188;2023-02-15T07:33:58;148.00;;;63.10;;
32864;SDS011;19219;44.500;11.188;2023-02-15T07:36:24;81.88;;;29.92;;
32864;SDS011;19219;44.500;11.188;2023-02-15T07:38:50;69.15;;;28.13;;
32864;SDS011;19219;44.500;11.188;2023-02-15T07:41:15;72.70;;;27.25;;
32864;SDS011;19219;44.500;11.188;2023-02-15T07:43:42;65.00;;;26.40;;
32864;SDS011;19219;44.500;11.188;2023-02-15T07:46:10;62.08;;;26.40;;
32864;SDS011;19219;44.500;11.188;2023-02-15T07:48:38;70.30;;;27.58;;
32864;SDS011;19219;44.500;11.188;2023-02-15T07:51:06;67.55;;;28.17;;
32864;SDS011;19219;44.500;11.188;2023-02-15T07:53:33;63.28;;;25.23;;
32864;SDS011;19219;44.500;11.188;2023-02-15T07:56:00;58.53;;;24.98;;
32864;SDS011;19219;44.500;11.188;2023-02-15T07:58:27;56.15;;;22.30;;
32864;SDS011;19219;44.500;11.188;2023-02-15T08:01:11;51.92;;;23.63;;
32864;SDS011;19219;44.500;11.188;2023-02-15T08:03:37;48.20;;;23.17;;
32864;SDS011;19219;44.500;11.188;2023-02-15T08:06:03;55.33;;;24.63;;
32864;SDS011;19219;44.500;11.188;2023-02-15T08:08:29;57.40;;;25.13;;
32864;SDS011;19219;44.500;11.188;2023-02-15T08:13:46;55.17;;;28.17;;
32864;SDS011;19219;44.500;11.188;2023-02-15T08:21:33;59.78;;;25.67;;
32864;SDS011;19219;44.500;11.188;2023-02-15T08:24:00;49.90;;;25.95;;
32864;SDS011;19219;44.500;11.188;2023-02-15T08:26:27;53.75;;;26.75;;
32864;SDS011;19219;44.500;11.188;2023-02-15T08:28:53;55.67;;;26.35;;
32864;SDS011;19219;44.500;11.188;2023-02-15T08:31:19;61.95;;;29.33;;
32864;SDS011;19219;44.500;11.188;2023-02-15T08:33:46;52.25;;;25.23;;
32864;SDS011;19219;44.500;11.188;2023-02-15T08:36:14;56.92;;;29.10;;
32864;SDS011;19219;44.500;11.188;2023-02-15T08:38:41;56.17;;;26.95;;
32864;SDS011;19219;44.500;11.188;2023-02-15T08:41:12;56.72;;;27.73;;
32864;SDS011;19219;44.500;11.188;2023-02-15T08:43:38;55.45;;;29.15;;
32864;SDS011;19219;44.500;11.188;2023-02-15T08:46:04;52.75;;;28.90;;
32864;SDS011;19219;44.500;11.188;2023-02-15T08:48:30;53.58;;;29.45;;
32864;SDS011;19219;44.500;11.188;2023-02-15T08:50:56;56.00;;;28.63;;
32864;SDS011;19219;44.500;11.188;2023-02-15T08:53:22;57.97;;;29.20;;
32864;SDS011;19219;44.500;11.188;2023-02-15T08:55:57;44.90;;;24.65;;
32864;SDS011;19219;44.500;11.188;2023-02-15T08:58:23;51.10;;;26.10;;
32864;SDS011;19219;44.500;11.188;2023-02-15T09:00:49;50.50;;;26.25;;
32864;SDS011;19219;44.500;11.188;2023-02-15T09:03:15;52.13;;;26.95;;
32864;SDS011;19219;44.500;11.188;2023-02-15T09:05:41;44.80;;;25.45;;
32864;SDS011;19219;44.500;11.188;2023-02-15T09:08:07;51.35;;;26.30;;
32864;SDS011;19219;44.500;11.188;2023-02-15T09:10:33;49.05;;;26.17;;
32864;SDS011;19219;44.500;11.188;2023-02-15T09:12:58;53.22;;;24.60;;
32864;SDS011;19219;44.500;11.188;2023-02-15T09:15:24;44.90;;;23.38;;
32864;SDS011;19219;44.500;11.188;2023-02-15T09:17:50;38.28;;;21.55;;
32864;SDS011;19219;44.500;11.188;2023-02-15T09:20:15;40.75;;;21.20;;
32864;SDS011;19219;44.500;11.188;2023-02-15T09:22:41;32.78;;;20.45;;
32864;SDS011;19219;44.500;11.188;2023-02-15T09:25:07;33.33;;;19.23;;
32864;SDS011;19219;44.500;11.188;2023-02-15T09:27:32;48.70;;;22.98;;
32864;SDS011;19219;44.500;11.188;2023-02-15T09:29:58;47.83;;;24.45;;
32864;SDS011;19219;44.500;11.188;2023-02-15T09:32:24;50.03;;;24.60;;
32864;SDS011;19219;44.500;11.188;2023-02-15T09:34:50;45.80;;;25.25;;
32864;SDS011;19219;44.500;11.188;2023-02-15T09:37:15;45.40;;;24.02;;
32864;SDS011;19219;44.500;11.188;2023-02-15T09:39:42;41.28;;;24.25;;
32864;SDS011;19219;44.500;11.188;2023-02-15T09:42:24;48.78;;;25.88;;
32864;SDS011;19219;44.500;11.188;2023-02-15T09:56:15;50.63;;;25.30;;
32864;SDS011;19219;44.500;11.188;2023-02-15T09:59:00;55.70;;;29.67;;
32864;SDS011;19219;44.500;11.188;2023-02-15T10:04:39;50.92;;;26.77;;
32864;SDS011;19219;44.500;11.188;2023-02-15T10:10:09;45.92;;;24.02;;
32864;SDS011;19219;44.500;11.188;2023-02-15T10:26:46;49.33;;;24.73;;
32864;SDS011;19219;44.500;11.188;2023-02-15T10:40:11;58.95;;;26.98;;
32864;SDS011;19219;44.500;11.188;2023-02-15T10:54:04;45.25;;;22.88;;
32864;SDS011;19219;44.500;11.188;2023-02-15T11:07:40;53.95;;;26.00;;
32864;SDS011;19219;44.500;11.188;2023-02-15T11:10:43;58.95;;;26.88;;
32864;SDS011;19219;44.500;11.188;2023-02-15T11:13:11;52.13;;;24.40;;
32864;SDS011;19219;44.500;11.188;2023-02-15T11:18:40;56.33;;;24.83;;
32864;SDS011;19219;44.500;11.188;2023-02-15T11:23:53;58.47;;;25.33;;
32864;SDS011;19219;44.500;11.188;2023-02-15T11:26:40;59.55;;;26.80;;
32864;SDS011;19219;44.500;11.188;2023-02-15T11:29:31;55.40;;;25.25;;
32864;SDS011;19219;44.500;11.188;2023-02-15T11:32:25;58.78;;;25.77;;
32864;SDS011;19219;44.500;11.188;2023-02-15T11:40:15;53.55;;;25.02;;
32864;SDS011;19219;44.500;11.188;2023-02-15T11:42:49;58.25;;;26.35;;
32864;SDS011;19219;44.500;11.188;2023-02-15T11:47:47;55.88;;;23.77;;
32864;SDS011;19219;44.500;11.188;2023-02-15T11:50:17;57.25;;;27.45;;
32864;SDS011;19219;44.500;11.188;2023-02-15T11:52:52;58.22;;;26.38;;
32864;SDS011;19219;44.500;11.188;2023-02-15T11:55:25;57.08;;;26.02;;
32864;SDS011;19219;44.500;11.188;2023-02-15T11:58:05;61.42;;;26.13;;
32864;SDS011;19219;44.500;11.188;2023-02-15T12:00:55;51.35;;;24.70;;
32864;SDS011;19219;44.500;11.188;2023-02-15T12:03:27;62.00;;;26.55;;
32864;SDS011;19219;44.500;11.188;2023-02-15T12:06:12;65.00;;;26.63;;
32864;SDS011;19219;44.500;11.188;2023-02-15T12:11:48;63.38;;;28.15;;
32864;SDS011;19219;44.500;11.188;2023-02-15T12:14:14;63.35;;;27.83;;
32864;SDS011;19219;44.500;11.188;2023-02-15T12:16:46;61.70;;;26.58;;
32864;SDS011;19219;44.500;11.188;2023-02-15T12:22:24;62.13;;;29.55;;
32864;SDS011;19219;44.500;11.188;2023-02-15T12:24:54;63.05;;;28.13;;
32864;SDS011;19219;44.500;11.188;2023-02-15T12:27:23;61.90;;;26.42;;
32864;SDS011;19219;44.500;11.188;2023-02-15T12:30:01;69.40;;;28.17;;
32864;SDS011;19219;44.500;11.188;2023-02-15T12:32:35;69.35;;;30.73;;
32864;SDS011;19219;44.500;11.188;2023-02-15T12:35:26;60.92;;;25.90;;
32864;SDS011;19219;44.500;11.188;2023-02-15T12:38:05;67.45;;;29.50;;
32864;SDS011;19219;44.500;11.188;2023-02-15T12:40:34;59.40;;;28.00;;
32864;SDS011;19219;44.500;11.188;2023-02-15T12:43:01;76.65;;;29.98;;
32864;SDS011;19219;44.500;11.188;2023-02-15T12:45:34;68.95;;;29.20;;
32864;SDS011;19219;44.500;11.188;2023-02-15T12:48:14;75.22;;;30.92;;
32864;SDS011;19219;44.500;11.188;2023-02-15T12:50:48;66.45;;;31.75;;
32864;SDS011;19219;44.500;11.188;2023-02-15T12:53:23;75.20;;;30.73;;
32864;SDS011;19219;44.500;11.188;2023-02-15T12:55:58;75.15;;;30.17;;
32864;SDS011;19219;44.500;11.188;2023-02-15T13:03:27;72.65;;;31.67;;
32864;SDS011;19219;44.500;11.188;2023-02-15T13:05:53;79.63;;;31.42;;
32864;SDS011;19219;44.500;11.188;2023-02-15T13:08:28;78.70;;;32.45;;
32864;SDS011;19219;44.500;11.188;2023-02-15T13:11:00;76.85;;;31.67;;
32864;SDS011;19219;44.500;11.188;2023-02-15T13:13:30;81.68;;;35.65;;
32864;SDS011;19219;44.500;11.188;2023-02-15T13:15:59;79.32;;;35.08;;
32864;SDS011;19219;44.500;11.188;2023-02-15T13:18:34;72.75;;;30.85;;
32864;SDS011;19219;44.500;11.188;2023-02-15T13:21:06;80.80;;;32.90;;
32864;SDS011;19219;44.500;11.188;2023-02-15T13:23:35;91.13;;;37.58;;
32864;SDS011;19219;44.500;11.188;2023-02-15T13:26:02;76.55;;;32.45;;
32864;SDS011;19219;44.500;11.188;2023-02-15T13:28:39;81.00;;;31.48;;
32864;SDS011;19219;44.500;11.188;2023-02-15T13:31:15;76.78;;;31.27;;
32864;SDS011;19219;44.500;11.188;2023-02-15T13:33:44;77.25;;;35.50;;
32864;SDS011;19219;44.500;11.188;2023-02-15T13:42:25;84.07;;;31.67;;
32864;SDS011;19219;44.500;11.188;2023-02-15T13:47:51;79.97;;;33.15;;
32864;SDS011;19219;44.500;11.188;2023-02-15T13:50:39;77.47;;;31.67;;
32864;SDS011;19219;44.500;11.188;2023-02-15T13:53:39;80.65;;;32.60;;
32864;SDS011;19219;44.500;11.188;2023-02-15T13:58:56;83.00;;;34.15;;
32864;SDS011;19219;44.500;11.188;2023-02-15T14:19:18;78.35;;;32.65;;
32864;SDS011;19219;44.500;11.188;2023-02-15T14:22:13;77.55;;;31.70;;
32864;SDS011;19219;44.500;11.188;2023-02-15T14:24:46;79.97;;;31.80;;
32864;SDS011;19219;44.500;11.188;2023-02-15T14:27:43;84.63;;;38.85;;
32864;SDS011;19219;44.500;11.188;2023-02-15T14:30:30;79.80;;;35.13;;
32864;SDS011;19219;44.500;11.188;2023-02-15T14:33:01;90.22;;;38.13;;
32864;SDS011;19219;44.500;11.188;2023-02-15T14:35:36;86.05;;;35.38;;
32864;SDS011;19219;44.500;11.188;2023-02-15T14:41:02;80.60;;;35.28;;
32864;SDS011;19219;44.500;11.188;2023-02-15T14:43:37;84.75;;;33.13;;
32864;SDS011;19219;44.500;11.188;2023-02-15T14:46:39;91.65;;;37.40;;
32864;SDS011;19219;44.500;11.188;2023-02-15T14:49:21;81.03;;;33.05;;
32864;SDS011;19219;44.500;11.188;2023-02-15T14:52:00;85.93;;;34.47;;
32864;SDS011;19219;44.500;11.188;2023-02-15T14:59:27;76.35;;;32.53;;
32864;SDS011;19219;44.500;11.188;2023-02-15T15:02:00;82.85;;;32.47;;
32864;SDS011;19219;44.500;11.188;2023-02-15T15:07:24;79.03;;;35.63;;
32864;SDS011;19219;44.500;11.188;2023-02-15T15:09:59;82.78;;;34.53;;
32864;SDS011;19219;44.500;11.188;2023-02-15T15:12:48;84.30;;;34.55;;
32864;SDS011;19219;44.500;11.188;2023-02-15T15:28:59;88.50;;;34.20;;
32864;SDS011;19219;44.500;11.188;2023-02-15T15:31:42;80.88;;;34.70;;
32864;SDS011;19219;44.500;11.188;2023-02-15T15:37:10;80.50;;;33.15;;
32864;SDS011;19219;44.500;11.188;2023-02-15T15:45:53;89.30;;;38.40;;
32864;SDS011;19219;44.500;11.188;2023-02-15T15:51:09;77.88;;;33.47;;
32864;SDS011;19219;44.500;11.188;2023-02-15T15:53:40;90.97;;;41.40;;
32864;SDS011;19219;44.500;11.188;2023-02-15T15:56:12;77.80;;;35.67;;
32864;SDS011;19219;44.500;11.188;2023-02-15T15:58:42;75.63;;;34.72;;
32864;SDS011;19219;44.500;11.188;2023-02-15T16:01:11;83.90;;;33.33;;
32864;SDS011;19219;44.500;11.188;2023-02-15T16:03:38;77.00;;;33.92;;
32864;SDS011;19219;44.500;11.188;2023-02-15T16:06:25;82.75;;;33.95;;
32864;SDS011;19219;44.500;11.188;2023-02-15T16:08:56;88.03;;;34.90;;
32864;SDS011;19219;44.500;11.188;2023-02-15T16:11:23;76.43;;;32.90;;
32864;SDS011;19219;44.500;11.188;2023-02-15T16:13:52;80.38;;;33.05;;
32864;SDS011;19219;44.500;11.188;2023-02-15T16:16:22;74.90;;;31.83;;
32864;SDS011;19219;44.500;11.188;2023-02-15T16:18:52;70.30;;;31.17;;
32864;SDS011;19219;44.500;11.188;2023-02-15T16:21:21;66.65;;;31.13;;
32864;SDS011;19219;44.500;11.188;2023-02-15T16:29:25;61.17;;;29.63;;
32864;SDS011;19219;44.500;11.188;2023-02-15T16:32:00;68.28;;;29.73;;
32864;SDS011;19219;44.500;11.188;2023-02-15T16:34:27;63.03;;;28.75;;
32864;SDS011;19219;44.500;11.188;2023-02-15T16:37:18;64.47;;;28.37;;
32864;SDS011;19219;44.500;11.188;2023-02-15T16:39:48;67.55;;;29.05;;
32864;SDS011;19219;44.500;11.188;2023-02-15T16:42:15;71.22;;;30.40;;
32864;SDS011;19219;44.500;11.188;2023-02-15T16:44:42;69.80;;;28.88;;
32864;SDS011;19219;44.500;11.188;2023-02-15T16:47:45;60.72;;;29.25;;
32864;SDS011;19219;44.500;11.188;2023-02-15T16:50:16;64.40;;;29.67;;
32864;SDS011;19219;44.500;11.188;2023-02-15T16:52:48;70.10;;;29.97;;
32864;SDS011;19219;44.500;11.188;2023-02-15T16:55:21;79.47;;;31.92;;
32864;SDS011;19219;44.500;11.188;2023-02-15T16:57:49;72.93;;;30.52;;
32864;SDS011;19219;44.500;11.188;2023-02-15T17:00:19;74.72;;;33.28;;
32864;SDS011;19219;44.500;11.188;2023-02-15T17:11:02;86.45;;;35.63;;
32864;SDS011;19219;44.500;11.188;2023-02-15T17:16:35;76.35;;;35.78;;
32864;SDS011;19219;44.500;11.188;2023-02-15T17:19:13;77.50;;;36.95;;
32864;SDS011;19219;44.500;11.188;2023-02-15T17:21:51;82.63;;;39.13;;
32864;SDS011;19219;44.500;11.188;2023-02-15T17:24:33;82.85;;;35.95;;
32864;SDS011;19219;44.500;11.188;2023-02-15T17:27:00;89.97;;;36.53;;
32864;SDS011;19219;44.500;11.188;2023-02-15T17:29:51;77.05;;;34.17;;
32864;SDS011;19219;44.500;11.188;2023-02-15T17:32:24;83.25;;;33.53;;
32864;SDS011;19219;44.500;11.188;2023-02-15T17:37:25;99.00;;;44.20;;
32864;SDS011;19219;44.500;11.188;2023-02-15T17:39:51;89.22;;;37.55;;
32864;SDS011;19219;44.500;11.188;2023-02-15T17:42:17;84.68;;;35.28;;
32864;SDS011;19219;44.500;11.188;2023-02-15T17:44:42;75.82;;;33.05;;
32864;SDS011;19219;44.500;11.188;2023-02-15T17:47:13;84.82;;;33.45;;
32864;SDS011;19219;44.500;11.188;2023-02-15T17:49:42;84.68;;;33.08;;
32864;SDS011;19219;44.500;11.188;2023-02-15T17:52:11;85.03;;;31.83;;
32864;SDS011;19219;44.500;11.188;2023-02-15T17:54:39;80.20;;;32.60;;
32864;SDS011;19219;44.500;11.188;2023-02-15T17:57:23;79.90;;;32.63;;